KHSB/HSB METAR and TAF weather

Enter ICAO airport designator
Station Type Date Time Source
KHSB METAR 2021/10/24 21:35 UTC NOAA

KHSB 242135Z AUTO 19013G16KT 10SM CLR 26/15 A2978 RMK AO2 T02640145


Station Type Date Time Source
KHSB Decoded METAR 2021/10/24 21:35 UTC NOAA

Harrisburg, Harrisburg-Raleigh Airport, IL, United States (KHSB) 37-48-41N 088-32-57W
Oct 24, 2021 - 05:35 PM EDT / 2021.10.24 2135 UTC
Wind: from the S (190 degrees) at 15 MPH (13 KT) gusting to 18 MPH (16 KT):0
Visibility: 10 mile(s):0
Sky conditions: clear
Temperature: 79.5 F (26.4 C)
Dew Point: 58.1 F (14.5 C)
Relative Humidity: 47%
Pressure (altimeter): 29.78 in. Hg (1008 hPa)
ob: KHSB 242135Z AUTO 19013G16KT 10SM CLR 26/15 A2978 RMK AO2 T02640145
cycle: 21

Station Type Date Time Source
KHSB TAF UTC NOAA

Error!

Example: see airport list